Airport View

Enter AWOS ICAO identifier for current METAR.

ex. KFNL

KHRI 210053Z AUTO 16004KT 10SM CLR 22/08 A3000 RMK AO2 SLP153 T02220078

21 Sep 2019 01:17

Frequency: 135.225

Phone: 541-567-8580

Other Area AWOS: KPDT - KPSC - KRLD - KMEH

TAF KPDT 202330Z 2100/2124 25009KT P6SM SCT070 SCT100 FM210300 22007KT P6SM FEW060 SCT250 FM210800 15007KT P6SM SCT250 FM211800 25008KT P6SM FEW100 BKN250